createdAt,value
2018-02-01T00:01:00.741Z,5.20
2018-02-01T00:03:28.856Z,5.10
2018-02-01T00:05:56.995Z,5.10
2018-02-01T00:08:25.112Z,5.00
2018-02-01T00:10:53.245Z,5.10
2018-02-01T00:13:21.462Z,5.10
2018-02-01T00:15:49.609Z,5.10
2018-02-01T00:18:18.505Z,5.10
2018-02-01T00:20:47.405Z,5.00
2018-02-01T00:23:15.564Z,5.00
2018-02-01T00:25:43.698Z,5.10
2018-02-01T00:28:11.825Z,5.00
2018-02-01T00:30:39.974Z,5.10
2018-02-01T00:33:08.870Z,5.10
2018-02-01T00:35:37.000Z,5.10
2018-02-01T00:38:05.125Z,5.00
2018-02-01T00:40:33.274Z,5.00
2018-02-01T00:43:02.168Z,5.10
2018-02-01T00:45:31.085Z,5.10
2018-02-01T00:47:59.204Z,5.10
2018-02-01T00:50:27.333Z,5.10
2018-02-01T00:52:55.460Z,5.10
2018-02-01T00:55:24.344Z,5.10
2018-02-01T00:57:52.477Z,5.10
2018-02-01T01:00:20.589Z,5.10
2018-02-01T01:02:49.485Z,5.10
2018-02-01T01:05:18.369Z,5.10
2018-02-01T01:07:47.266Z,5.10
2018-02-01T01:10:16.142Z,5.00
2018-02-01T01:12:44.269Z,5.00
2018-02-01T01:15:12.398Z,5.10
2018-02-01T01:17:41.280Z,5.10
2018-02-01T01:20:10.160Z,5.20
2018-02-01T01:22:38.276Z,5.20
2018-02-01T01:25:06.400Z,5.10
2018-02-01T01:27:34.522Z,5.10
2018-02-01T01:30:02.648Z,5.10
2018-02-01T01:32:30.773Z,5.10
2018-02-01T01:34:58.898Z,5.20
2018-02-01T01:37:27.792Z,5.10
2018-02-01T01:39:56.688Z,5.10
2018-02-01T01:42:25.589Z,5.10
2018-02-01T01:44:53.704Z,5.10
2018-02-01T01:47:21.845Z,5.10
2018-02-01T01:49:49.961Z,5.10
2018-02-01T01:52:18.100Z,5.10
2018-02-01T01:54:46.209Z,5.10
2018-02-01T01:57:14.346Z,5.10
2018-02-01T01:59:42.452Z,5.10
2018-02-01T02:02:10.593Z,5.10
2018-02-01T02:04:38.714Z,5.10
2018-02-01T02:07:07.608Z,5.00
2018-02-01T02:09:36.489Z,5.00
2018-02-01T02:12:05.376Z,5.00
2018-02-01T02:14:34.258Z,5.00
2018-02-01T02:17:02.387Z,5.00
2018-02-01T02:19:30.511Z,5.00
2018-02-01T02:21:59.408Z,5.00
2018-02-01T02:24:28.300Z,5.00
2018-02-01T02:26:56.432Z,4.90
2018-02-01T02:29:24.549Z,5.00
2018-02-01T02:31:53.463Z,5.00
2018-02-01T02:34:21.594Z,4.90
2018-02-01T02:36:50.488Z,4.90
2018-02-01T02:39:19.439Z,4.90
2018-02-01T02:41:47.635Z,4.90
2018-02-01T02:44:15.777Z,4.90
2018-02-01T02:46:43.909Z,4.90
2018-02-01T02:49:12.028Z,4.90
2018-02-01T02:51:40.160Z,4.80
2018-02-01T02:54:08.289Z,4.70
2018-02-01T02:56:36.474Z,4.60
2018-02-01T02:59:05.375Z,4.50
2018-02-01T03:01:33.525Z,4.50
2018-02-01T03:04:01.638Z,4.40
2018-02-01T03:06:29.776Z,4.40
2018-02-01T03:08:57.907Z,4.40
2018-02-01T03:11:26.797Z,4.30
2018-02-01T03:13:54.922Z,4.30
2018-02-01T03:16:23.792Z,4.30
2018-02-01T03:18:52.688Z,4.30
2018-02-01T03:21:21.570Z,4.20
2018-02-01T03:23:50.544Z,4.10
2018-02-01T03:26:18.676Z,4.00
2018-02-01T03:28:46.801Z,4.10
2018-02-01T03:31:15.766Z,3.90
2018-02-01T03:33:43.902Z,3.90
2018-02-01T03:36:12.022Z,3.90
2018-02-01T03:38:40.153Z,3.90
2018-02-01T03:41:08.273Z,3.90
2018-02-01T03:43:37.173Z,3.90
2018-02-01T03:46:06.054Z,3.80
2018-02-01T03:48:34.166Z,3.80
2018-02-01T03:51:02.292Z,3.80
2018-02-01T03:53:30.401Z,3.80
2018-02-01T03:55:58.530Z,3.80
2018-02-01T03:58:26.653Z,3.80
2018-02-01T04:00:54.877Z,3.70
2018-02-01T04:03:23.756Z,3.60
2018-02-01T04:05:51.908Z,3.60
2018-02-01T04:08:20.000Z,3.50
2018-02-01T04:10:48.134Z,3.60
2018-02-01T04:13:16.260Z,3.50
2018-02-01T04:15:44.421Z,3.50
2018-02-01T04:18:12.531Z,3.50
2018-02-01T04:20:40.661Z,3.50
2018-02-01T04:23:08.779Z,3.50
2018-02-01T04:25:36.908Z,3.50
2018-02-01T04:28:05.907Z,3.50
2018-02-01T04:30:34.091Z,3.50
2018-02-01T04:33:03.071Z,3.30
2018-02-01T04:35:31.189Z,3.30
2018-02-01T04:37:59.546Z,3.30
2018-02-01T04:40:27.678Z,3.20
2018-02-01T04:42:55.808Z,3.20
2018-02-01T04:45:23.981Z,3.20
2018-02-01T04:47:52.107Z,3.20
2018-02-01T04:50:20.981Z,3.20
2018-02-01T04:52:49.112Z,3.20
2018-02-01T04:55:17.235Z,3.10
2018-02-01T04:57:46.150Z,3.20
2018-02-01T05:00:14.281Z,3.10
2018-02-01T05:02:42.416Z,3.10
2018-02-01T05:05:10.933Z,3.20
2018-02-01T05:07:39.048Z,3.20
2018-02-01T05:10:07.201Z,3.20
2018-02-01T05:12:35.315Z,3.20
2018-02-01T05:15:03.440Z,3.20
2018-02-01T05:17:31.560Z,3.10
2018-02-01T05:20:00.587Z,3.10
2018-02-01T05:22:28.717Z,3.10
2018-02-01T05:24:56.855Z,3.10
2018-02-01T05:27:24.973Z,3.10
2018-02-01T05:29:53.876Z,3.10
2018-02-01T05:32:22.017Z,3.10
2018-02-01T05:34:50.147Z,3.10
2018-02-01T05:37:18.283Z,3.00
2018-02-01T05:39:46.442Z,3.10
2018-02-01T05:42:14.547Z,3.10
2018-02-01T05:44:42.679Z,3.00
2018-02-01T05:47:10.820Z,3.00
2018-02-01T05:49:39.074Z,3.00
2018-02-01T05:52:07.194Z,3.20
2018-02-01T05:54:35.341Z,3.00
2018-02-01T05:57:03.480Z,3.00
2018-02-01T05:59:31.605Z,3.10
2018-02-01T06:01:59.748Z,3.10
2018-02-01T06:04:27.908Z,2.90
2018-02-01T06:06:56.816Z,3.00
2018-02-01T06:09:24.953Z,2.90
2018-02-01T06:11:53.657Z,2.90
2018-02-01T06:14:22.535Z,2.90
2018-02-01T06:16:51.444Z,2.90
2018-02-01T06:19:19.566Z,2.90
2018-02-01T06:21:47.696Z,2.90
2018-02-01T06:24:15.836Z,2.80
2018-02-01T06:26:44.740Z,2.80
2018-02-01T06:29:12.879Z,2.70
2018-02-01T06:31:41.057Z,2.80
2018-02-01T06:34:09.200Z,2.80
2018-02-01T06:36:37.348Z,2.80
2018-02-01T06:39:05.481Z,2.80
2018-02-01T06:41:34.360Z,2.80
2018-02-01T06:44:02.543Z,2.80
2018-02-01T06:46:30.645Z,2.80
2018-02-01T06:48:58.828Z,2.80
2018-02-01T06:51:27.004Z,2.80
2018-02-01T06:53:55.140Z,2.80
2018-02-01T06:56:23.258Z,2.80
2018-02-01T06:58:51.383Z,2.80
2018-02-01T07:01:25.280Z,2.80
2018-02-01T07:03:54.184Z,2.80
2018-02-01T07:06:23.067Z,2.80
2018-02-01T07:08:51.208Z,2.80
2018-02-01T07:11:19.385Z,2.80
2018-02-01T07:13:47.520Z,2.80
2018-02-01T07:16:15.635Z,2.80
2018-02-01T07:18:44.540Z,2.80
2018-02-01T07:21:12.668Z,2.80
2018-02-01T07:23:40.819Z,2.90
2018-02-01T07:26:08.993Z,2.90
2018-02-01T07:28:37.088Z,2.90
2018-02-01T07:31:05.231Z,2.90
2018-02-01T07:33:33.364Z,2.90
2018-02-01T07:36:02.254Z,2.90
2018-02-01T07:38:30.394Z,2.80
2018-02-01T07:40:58.527Z,2.90
2018-02-01T07:43:26.645Z,2.90
2018-02-01T07:45:55.568Z,3.00
2018-02-01T07:48:23.712Z,3.00
2018-02-01T07:50:52.632Z,2.90
2018-02-01T07:53:20.782Z,2.90
2018-02-01T07:55:48.881Z,2.90
2018-02-01T07:58:17.024Z,3.10
2018-02-01T08:00:45.925Z,2.90
2018-02-01T08:03:14.060Z,2.90
2018-02-01T08:05:42.208Z,3.00
2018-02-01T08:08:10.321Z,3.00
2018-02-01T08:10:39.204Z,3.00
2018-02-01T08:13:07.337Z,3.00
2018-02-01T08:15:35.468Z,3.00
2018-02-01T08:18:03.604Z,2.90
2018-02-01T08:20:31.720Z,2.90
2018-02-01T08:22:59.848Z,2.80
2018-02-01T08:25:27.970Z,2.80
2018-02-01T08:27:56.109Z,2.90
2018-02-01T08:30:25.085Z,2.90
2018-02-01T08:32:53.254Z,2.90
2018-02-01T08:35:21.372Z,2.90
2018-02-01T08:37:49.545Z,3.00
2018-02-01T08:40:17.668Z,3.10
2018-02-01T08:42:45.800Z,3.10
2018-02-01T08:45:13.924Z,2.90
2018-02-01T08:47:42.829Z,3.00
2018-02-01T08:50:11.733Z,3.10
2018-02-01T08:52:39.880Z,3.10
2018-02-01T08:55:08.009Z,3.00
2018-02-01T08:57:36.140Z,3.10
2018-02-01T09:00:04.297Z,3.00
2018-02-01T09:02:33.206Z,3.10
2018-02-01T09:05:01.360Z,3.10
2018-02-01T09:07:30.241Z,3.10
2018-02-01T09:09:58.412Z,3.10
2018-02-01T09:12:27.309Z,3.00
2018-02-01T09:14:56.237Z,3.00
2018-02-01T09:17:24.362Z,3.00
2018-02-01T09:19:52.533Z,3.00
2018-02-01T09:22:21.444Z,3.00
2018-02-01T09:24:49.584Z,3.00
2018-02-01T09:27:17.735Z,3.10
2018-02-01T09:29:45.870Z,3.10
2018-02-01T09:32:14.007Z,3.10
2018-02-01T09:34:42.131Z,3.10
2018-02-01T09:37:10.236Z,3.00
2018-02-01T09:39:38.377Z,3.00
2018-02-01T09:42:06.488Z,2.90
2018-02-01T09:44:34.620Z,3.00
2018-02-01T09:47:02.734Z,3.10
2018-02-01T09:49:30.870Z,3.00
2018-02-01T09:51:58.989Z,3.10
2018-02-01T09:54:27.996Z,3.20
2018-02-01T09:56:56.120Z,3.20
2018-02-01T09:59:24.271Z,3.10
2018-02-01T10:01:52.389Z,3.10
2018-02-01T10:04:21.301Z,3.00
2018-02-01T10:06:49.436Z,3.00
2018-02-01T10:09:17.554Z,3.10
2018-02-01T10:11:45.693Z,3.00
2018-02-01T10:14:14.573Z,3.00
2018-02-01T10:16:43.480Z,3.20
2018-02-01T10:19:12.356Z,3.10
2018-02-01T10:21:41.275Z,3.20
2018-02-01T10:24:09.394Z,3.20
2018-02-01T10:26:37.525Z,3.10
2018-02-01T10:29:05.641Z,3.20
2018-02-01T10:31:33.792Z,3.10
2018-02-01T10:34:01.913Z,3.20
2018-02-01T10:36:30.812Z,3.20
2018-02-01T10:38:59.684Z,3.20
2018-02-01T10:41:28.595Z,3.40
2018-02-01T10:43:56.721Z,3.40
2018-02-01T10:46:24.845Z,3.30
2018-02-01T10:48:52.958Z,3.10
2018-02-01T10:51:21.090Z,3.00
2018-02-01T10:53:49.216Z,2.90
2018-02-01T10:56:17.372Z,2.50
2018-02-01T10:58:45.519Z,2.40
2018-02-01T11:01:13.667Z,2.40
2018-02-01T11:03:41.803Z,2.20
2018-02-01T11:06:09.940Z,2.20
2018-02-01T11:08:38.061Z,2.20
2018-02-01T11:11:06.950Z,2.40
2018-02-01T11:13:35.836Z,2.30
2018-02-01T11:16:04.717Z,2.20
2018-02-01T11:18:33.616Z,2.20
2018-02-01T11:21:02.512Z,2.50
2018-02-01T11:23:30.663Z,2.50
2018-02-01T11:25:59.556Z,2.50
2018-02-01T11:28:28.454Z,2.60
2018-02-01T11:30:57.344Z,2.70
2018-02-01T11:33:26.244Z,2.90
2018-02-01T11:35:54.375Z,2.80
2018-02-01T11:38:22.496Z,2.70
2018-02-01T11:40:50.625Z,2.80
2018-02-01T11:43:18.772Z,2.90
2018-02-01T11:45:46.892Z,2.90
2018-02-01T11:48:15.785Z,2.90
2018-02-01T11:50:44.694Z,2.80
2018-02-01T11:53:12.804Z,2.80
2018-02-01T11:55:40.948Z,2.70
2018-02-01T11:58:09.063Z,2.80
2018-02-01T12:00:37.193Z,2.90
2018-02-01T12:03:05.313Z,2.90
2018-02-01T12:05:33.454Z,2.70
2018-02-01T12:08:01.594Z,2.90
2018-02-01T12:10:29.721Z,2.90
2018-02-01T12:12:57.841Z,3.00
2018-02-01T12:15:25.978Z,3.10
2018-02-01T12:17:54.081Z,3.10
2018-02-01T12:20:22.245Z,3.10
2018-02-01T12:22:51.113Z,3.10
2018-02-01T12:25:20.027Z,2.90
2018-02-01T12:27:48.164Z,2.90
2018-02-01T12:30:16.288Z,3.00
2018-02-01T12:32:44.420Z,3.10
2018-02-01T12:35:13.326Z,3.10
2018-02-01T12:37:41.467Z,3.10
2018-02-01T12:40:09.585Z,3.20
2018-02-01T12:42:37.728Z,2.90
2018-02-01T12:45:05.857Z,2.90
2018-02-01T12:47:33.993Z,3.10
2018-02-01T12:50:02.118Z,3.10
2018-02-01T12:52:30.252Z,3.20
2018-02-01T12:54:58.368Z,3.10
2018-02-01T12:57:27.329Z,3.10
2018-02-01T12:59:55.450Z,3.10
2018-02-01T13:02:23.585Z,3.10
2018-02-01T13:04:51.791Z,3.10
2018-02-01T13:07:19.925Z,3.00
2018-02-01T13:09:48.053Z,3.00
2018-02-01T13:12:16.203Z,3.00
2018-02-01T13:14:45.086Z,2.90
2018-02-01T13:17:13.980Z,2.90
2018-02-01T13:19:42.864Z,3.10
2018-02-01T13:22:11.781Z,3.00
2018-02-01T13:24:39.901Z,3.00
2018-02-01T13:27:08.797Z,2.90
2018-02-01T13:29:37.716Z,3.00
2018-02-01T13:32:05.877Z,3.00
2018-02-01T13:34:34.772Z,2.90
2018-02-01T13:37:02.892Z,2.90
2018-02-01T13:39:31.032Z,2.90
2018-02-01T13:41:59.156Z,3.00
2018-02-01T13:44:27.296Z,3.00
2018-02-01T13:46:55.412Z,3.00
2018-02-01T13:49:24.308Z,2.90
2018-02-01T13:51:53.188Z,3.00
2018-02-01T13:54:22.104Z,3.00
2018-02-01T13:56:50.248Z,2.90
2018-02-01T13:59:18.382Z,2.80
2018-02-01T14:01:46.524Z,2.80
2018-02-01T14:04:14.657Z,2.90
2018-02-01T14:06:42.777Z,2.80
2018-02-01T14:09:10.922Z,2.70
2018-02-01T14:11:39.812Z,2.60
2018-02-01T14:14:08.725Z,2.60
2018-02-01T14:16:36.833Z,2.60
2018-02-01T14:19:04.972Z,2.60
2018-02-01T14:21:33.096Z,2.60
2018-02-01T14:24:01.989Z,2.40
2018-02-01T14:26:30.900Z,2.50
2018-02-01T14:28:59.041Z,2.40
2018-02-01T14:31:27.173Z,2.40
2018-02-01T14:33:55.290Z,2.40
2018-02-01T14:36:24.197Z,2.40
2018-02-01T14:38:53.081Z,2.50
2018-02-01T14:41:22.625Z,2.50
2018-02-01T14:43:51.048Z,2.50
2018-02-01T14:46:20.003Z,2.50
2018-02-01T14:48:48.429Z,2.50
2018-02-01T14:51:17.320Z,2.40
2018-02-01T14:53:46.587Z,2.40
2018-02-01T14:56:14.793Z,2.40
2018-02-01T14:58:42.896Z,2.40
2018-02-01T15:01:11.188Z,2.40
2018-02-01T15:03:39.531Z,2.50
2018-02-01T15:06:07.701Z,2.50
2018-02-01T15:08:35.843Z,2.60
2018-02-01T15:11:04.729Z,2.50
2018-02-01T15:13:32.894Z,2.50
2018-02-01T15:16:00.998Z,2.50
2018-02-01T15:18:29.136Z,2.40
2018-02-01T15:20:57.324Z,2.50
2018-02-01T15:23:26.339Z,2.50
2018-02-01T15:25:54.450Z,2.50
2018-02-01T15:28:22.576Z,2.40
2018-02-01T15:30:50.812Z,2.40
2018-02-01T15:33:18.952Z,2.30
2018-02-01T15:35:47.332Z,2.40
2018-02-01T15:38:15.447Z,2.40
2018-02-01T15:40:44.349Z,2.40
2018-02-01T15:43:12.511Z,2.40
2018-02-01T15:45:40.814Z,2.40
2018-02-01T15:48:08.944Z,2.30
2018-02-01T15:50:37.076Z,2.30
2018-02-01T15:53:05.225Z,2.40
2018-02-01T15:55:33.352Z,2.30
2018-02-01T15:58:01.476Z,2.30
2018-02-01T16:00:29.718Z,2.30
2018-02-01T16:02:57.858Z,2.30
2018-02-01T16:05:26.000Z,2.20
2018-02-01T16:07:54.141Z,2.10
2018-02-01T16:10:23.035Z,2.00
2018-02-01T16:12:51.161Z,2.00
2018-02-01T16:15:19.306Z,1.90
2018-02-01T16:17:48.477Z,1.90
2018-02-01T16:20:16.710Z,1.80
2018-02-01T16:22:44.826Z,1.80
2018-02-01T16:25:12.952Z,1.80
2018-02-01T16:27:41.085Z,1.70
2018-02-01T16:30:09.217Z,1.70
2018-02-01T16:32:37.993Z,1.80
2018-02-01T16:35:06.988Z,1.60
2018-02-01T16:37:35.888Z,1.70
2018-02-01T16:40:04.036Z,1.60
2018-02-01T16:42:32.179Z,1.60
2018-02-01T16:45:00.355Z,1.70
2018-02-01T16:47:28.520Z,1.60
2018-02-01T16:49:56.640Z,1.50
2018-02-01T16:52:24.805Z,1.50
2018-02-01T16:54:53.685Z,1.60
2018-02-01T16:57:21.829Z,1.60
2018-02-01T16:59:49.940Z,1.60
2018-02-01T17:02:19.683Z,1.60
2018-02-01T17:04:47.790Z,1.60
2018-02-01T17:07:15.970Z,1.50
2018-02-01T17:09:44.958Z,1.40
2018-02-01T17:12:13.089Z,1.50
2018-02-01T17:14:41.196Z,1.50
2018-02-01T17:17:09.976Z,1.50
2018-02-01T17:19:39.556Z,1.40
2018-02-01T17:22:07.731Z,1.40
2018-02-01T17:24:36.576Z,1.40
2018-02-01T17:27:04.718Z,1.40
2018-02-01T17:29:32.958Z,1.40
2018-02-01T17:32:01.072Z,1.40
2018-02-01T17:34:29.208Z,1.40
2018-02-01T17:36:57.361Z,1.20
2018-02-01T17:39:25.480Z,1.20
2018-02-01T17:41:53.593Z,1.20
2018-02-01T17:44:21.720Z,1.20
2018-02-01T17:46:49.844Z,1.20
2018-02-01T17:49:17.990Z,1.20
2018-02-01T17:51:46.892Z,1.50
2018-02-01T17:54:15.025Z,1.50
2018-02-01T17:56:43.132Z,1.40
2018-02-01T17:59:11.262Z,1.30
2018-02-01T18:01:39.477Z,1.20
2018-02-01T18:04:07.678Z,1.20
2018-02-01T18:06:35.836Z,1.30
2018-02-01T18:09:03.967Z,1.30
2018-02-01T18:11:32.089Z,1.40
2018-02-01T18:14:00.276Z,1.40
2018-02-01T18:16:28.372Z,1.40
2018-02-01T18:18:56.509Z,1.50
2018-02-01T18:21:24.612Z,1.50
2018-02-01T18:23:52.842Z,1.50
2018-02-01T18:26:20.956Z,1.50
2018-02-01T18:28:49.129Z,1.50
2018-02-01T18:31:17.352Z,1.60
2018-02-01T18:33:45.848Z,1.60
2018-02-01T18:36:13.944Z,1.50
2018-02-01T18:38:42.068Z,1.50
2018-02-01T18:41:10.193Z,1.60
2018-02-01T18:43:38.362Z,1.60
2018-02-01T18:46:06.483Z,1.60
2018-02-01T18:48:34.621Z,1.60
2018-02-01T18:51:02.752Z,1.60
2018-02-01T18:53:30.872Z,1.60
2018-02-01T18:55:59.866Z,1.50
2018-02-01T18:58:28.921Z,1.50
2018-02-01T19:00:57.088Z,1.40
2018-02-01T19:03:26.106Z,1.50
2018-02-01T19:05:54.262Z,1.40
2018-02-01T19:08:23.328Z,1.50
2018-02-01T19:10:51.668Z,1.50
2018-02-01T19:13:20.000Z,1.40
2018-02-01T19:15:48.155Z,1.40
2018-02-01T19:18:16.299Z,1.40
2018-02-01T19:20:45.013Z,1.40
2018-02-01T19:23:13.119Z,1.40
2018-02-01T19:25:41.297Z,1.40
2018-02-01T19:28:09.538Z,1.50
2018-02-01T19:30:37.711Z,1.50
2018-02-01T19:33:05.824Z,1.40
2018-02-01T19:35:34.729Z,1.50
2018-02-01T19:38:02.906Z,1.50
2018-02-01T19:40:31.048Z,1.60
2018-02-01T19:43:00.006Z,1.90
2018-02-01T19:45:28.140Z,1.80
2018-02-01T19:47:56.265Z,1.60
2018-02-01T19:50:24.456Z,1.60
2018-02-01T19:52:52.623Z,1.50
2018-02-01T19:55:20.748Z,1.40
2018-02-01T19:57:48.915Z,1.30
2018-02-01T20:00:17.024Z,1.40
2018-02-01T20:02:45.204Z,1.40
2018-02-01T20:05:13.324Z,1.50
2018-02-01T20:07:41.487Z,1.60
2018-02-01T20:10:11.328Z,1.30
2018-02-01T20:12:39.507Z,1.30
2018-02-01T20:15:07.666Z,1.30
2018-02-01T20:17:35.830Z,1.40
2018-02-01T20:20:03.984Z,1.40
2018-02-01T20:22:32.869Z,1.50
2018-02-01T20:25:01.792Z,1.30
2018-02-01T20:27:29.907Z,1.30
2018-02-01T20:29:58.085Z,1.30
2018-02-01T20:32:26.188Z,1.40
2018-02-01T20:34:54.352Z,1.30
2018-02-01T20:37:22.539Z,1.30
2018-02-01T20:39:51.752Z,1.30
2018-02-01T20:42:20.033Z,1.40
2018-02-01T20:44:48.243Z,1.40
2018-02-01T20:47:17.377Z,1.40
2018-02-01T20:49:45.520Z,1.40
2018-02-01T20:52:14.400Z,1.30
2018-02-01T20:54:42.551Z,1.30
2018-02-01T20:57:10.681Z,1.20
2018-02-01T20:59:38.843Z,1.30
2018-02-01T21:02:07.059Z,1.20
2018-02-01T21:04:35.200Z,1.20
2018-02-01T21:07:03.374Z,1.10
2018-02-01T21:09:31.535Z,1.10
2018-02-01T21:12:00.085Z,1.00
2018-02-01T21:14:28.978Z,1.00
2018-02-01T21:16:57.116Z,1.00
2018-02-01T21:19:25.314Z,1.10
2018-02-01T21:21:53.409Z,1.10
2018-02-01T21:24:21.603Z,1.10
2018-02-01T21:26:49.768Z,1.20
2018-02-01T21:29:17.887Z,1.20
2018-02-01T21:31:46.051Z,1.20
2018-02-01T21:34:19.911Z,1.20
2018-02-01T21:36:50.352Z,1.30
2018-02-01T21:39:18.496Z,1.30
2018-02-01T21:41:46.662Z,1.30
2018-02-01T21:44:14.996Z,1.30
2018-02-01T21:46:43.156Z,1.40
2018-02-01T21:49:12.034Z,1.40
2018-02-01T21:51:41.564Z,1.40
2018-02-01T21:54:09.834Z,1.30
2018-02-01T21:56:38.033Z,1.40
2018-02-01T21:59:06.912Z,1.30
2018-02-01T22:01:35.098Z,1.30
2018-02-01T22:04:03.993Z,1.30
2018-02-01T22:06:32.239Z,1.40
2018-02-01T22:09:00.357Z,1.30
2018-02-01T22:11:28.535Z,1.30
2018-02-01T22:13:56.685Z,1.40
2018-02-01T22:16:24.820Z,1.40
2018-02-01T22:18:53.336Z,1.40
2018-02-01T22:21:21.445Z,1.50
2018-02-01T22:23:49.622Z,1.50
2018-02-01T22:26:17.742Z,1.50
2018-02-01T22:28:46.720Z,1.60
2018-02-01T22:31:15.650Z,1.50
2018-02-01T22:33:43.761Z,1.50
2018-02-01T22:36:11.999Z,1.40
2018-02-01T22:38:40.163Z,1.40
2018-02-01T22:41:08.269Z,1.40
2018-02-01T22:43:36.396Z,1.40
2018-02-01T22:46:04.560Z,1.30
2018-02-01T22:48:33.450Z,1.30
2018-02-01T22:51:01.574Z,1.30
2018-02-01T22:53:29.737Z,1.30
2018-02-01T22:55:57.852Z,1.30
2018-02-01T22:58:26.736Z,1.20
2018-02-01T23:00:55.712Z,1.30
2018-02-01T23:03:23.832Z,1.20
2018-02-01T23:05:51.983Z,1.20
2018-02-01T23:08:20.859Z,1.10
2018-02-01T23:10:49.762Z,1.10
2018-02-01T23:13:17.947Z,1.10
2018-02-01T23:15:46.030Z,1.10
2018-02-01T23:18:14.152Z,1.10
2018-02-01T23:20:43.044Z,1.10
2018-02-01T23:23:11.945Z,1.10
2018-02-01T23:25:40.077Z,1.10
2018-02-01T23:28:09.030Z,1.10
2018-02-01T23:30:37.176Z,1.10
2018-02-01T23:33:06.048Z,1.10
2018-02-01T23:35:34.164Z,1.10
2018-02-01T23:38:02.309Z,1.10
2018-02-01T23:40:30.438Z,1.00
2018-02-01T23:42:58.573Z,1.00
2018-02-01T23:45:26.681Z,0.90
2018-02-01T23:47:54.809Z,0.90
2018-02-01T23:50:22.945Z,1.00
2018-02-01T23:52:51.072Z,1.00
2018-02-01T23:55:19.185Z,0.90
2018-02-01T23:57:47.318Z,1.00
